sensor_id;sensor_type;location;lat;lon;timestamp;temperature;humidity
19966;DHT22;10144;50.874;4.762;2023-02-26T00:01:43;0.60;99.90
19966;DHT22;10144;50.874;4.762;2023-02-26T00:04:12;0.50;99.90
19966;DHT22;10144;50.874;4.762;2023-02-26T00:06:39;0.60;99.90
19966;DHT22;10144;50.874;4.762;2023-02-26T00:09:20;0.50;99.90
19966;DHT22;10144;50.874;4.762;2023-02-26T00:11:49;0.30;99.90
19966;DHT22;10144;50.874;4.762;2023-02-26T00:14:29;0.30;99.90
19966;DHT22;10144;50.874;4.762;2023-02-26T00:17:06;0.40;99.90
19966;DHT22;10144;50.874;4.762;2023-02-26T00:19:34;0.40;99.90
19966;DHT22;10144;50.874;4.762;2023-02-26T00:22:00;0.40;99.90
19966;DHT22;10144;50.874;4.762;2023-02-26T00:24:26;0.30;99.90
19966;DHT22;10144;50.874;4.762;2023-02-26T00:26:54;0.40;99.90
19966;DHT22;10144;50.874;4.762;2023-02-26T00:29:21;0.40;99.90
19966;DHT22;10144;50.874;4.762;2023-02-26T00:31:50;0.20;99.90
19966;DHT22;10144;50.874;4.762;2023-02-26T00:34:35;0.20;99.90
19966;DHT22;10144;50.874;4.762;2023-02-26T00:42:56;0.30;99.90
19966;DHT22;10144;50.874;4.762;2023-02-26T00:45:25;0.30;99.90
19966;DHT22;10144;50.874;4.762;2023-02-26T00:56:40;0.10;99.90
19966;DHT22;10144;50.874;4.762;2023-02-26T00:59:09;0.20;99.90
19966;DHT22;10144;50.874;4.762;2023-02-26T01:01:37;0.10;99.90
19966;DHT22;10144;50.874;4.762;2023-02-26T01:04:16;-0.10;99.90
19966;DHT22;10144;50.874;4.762;2023-02-26T01:06:47;-0.10;99.90
19966;DHT22;10144;50.874;4.762;2023-02-26T01:12:14;0.10;99.90
19966;DHT22;10144;50.874;4.762;2023-02-26T01:14:49;0.10;99.90
19966;DHT22;10144;50.874;4.762;2023-02-26T01:17:23;0.20;99.90
19966;DHT22;10144;50.874;4.762;2023-02-26T01:20:20;0.20;99.90
19966;DHT22;10144;50.874;4.762;2023-02-26T01:23:08;0.20;99.90
19966;DHT22;10144;50.874;4.762;2023-02-26T01:25:55;0.20;99.90
19966;DHT22;10144;50.874;4.762;2023-02-26T01:28:39;0.00;99.90
19966;DHT22;10144;50.874;4.762;2023-02-26T01:33:53;0.20;99.90
19966;DHT22;10144;50.874;4.762;2023-02-26T01:36:31;0.20;99.90
19966;DHT22;10144;50.874;4.762;2023-02-26T01:42:21;0.20;99.90
19966;DHT22;10144;50.874;4.762;2023-02-26T01:45:15;0.20;99.90
19966;DHT22;10144;50.874;4.762;2023-02-26T01:48:01;0.00;99.90
19966;DHT22;10144;50.874;4.762;2023-02-26T01:50:35;0.10;99.90
19966;DHT22;10144;50.874;4.762;2023-02-26T01:53:25;0.10;99.90
19966;DHT22;10144;50.874;4.762;2023-02-26T01:59:07;0.10;99.90
19966;DHT22;10144;50.874;4.762;2023-02-26T02:01:40;0.10;99.90
19966;DHT22;10144;50.874;4.762;2023-02-26T02:04:10;0.20;99.90
19966;DHT22;10144;50.874;4.762;2023-02-26T02:06:54;0.40;99.90
19966;DHT22;10144;50.874;4.762;2023-02-26T02:09:23;0.40;99.90
19966;DHT22;10144;50.874;4.762;2023-02-26T02:12:22;0.60;99.90
19966;DHT22;10144;50.874;4.762;2023-02-26T02:34:03;1.00;99.90
19966;DHT22;10144;50.874;4.762;2023-02-26T02:37:04;0.80;99.90
19966;DHT22;10144;50.874;4.762;2023-02-26T02:42:08;0.70;99.90
19966;DHT22;10144;50.874;4.762;2023-02-26T02:44:49;0.60;99.90
19966;DHT22;10144;50.874;4.762;2023-02-26T02:47:38;0.50;99.90
19966;DHT22;10144;50.874;4.762;2023-02-26T02:50:15;0.40;99.90
19966;DHT22;10144;50.874;4.762;2023-02-26T02:53:01;0.40;99.90
19966;DHT22;10144;50.874;4.762;2023-02-26T02:55:36;0.40;99.90
19966;DHT22;10144;50.874;4.762;2023-02-26T02:58:22;0.30;99.90
19966;DHT22;10144;50.874;4.762;2023-02-26T03:00:54;0.40;99.90
19966;DHT22;10144;50.874;4.762;2023-02-26T03:06:35;0.30;99.90
19966;DHT22;10144;50.874;4.762;2023-02-26T03:09:06;0.30;99.90
19966;DHT22;10144;50.874;4.762;2023-02-26T03:11:38;0.30;99.90
19966;DHT22;10144;50.874;4.762;2023-02-26T03:14:07;0.30;99.90
19966;DHT22;10144;50.874;4.762;2023-02-26T03:28:30;0.30;99.90
19966;DHT22;10144;50.874;4.762;2023-02-26T03:34:07;0.00;99.90
19966;DHT22;10144;50.874;4.762;2023-02-26T03:36:39;0.00;99.90
19966;DHT22;10144;50.874;4.762;2023-02-26T03:39:13;0.10;99.90
19966;DHT22;10144;50.874;4.762;2023-02-26T03:44:46;0.00;99.90
19966;DHT22;10144;50.874;4.762;2023-02-26T03:47:14;-0.10;99.90
19966;DHT22;10144;50.874;4.762;2023-02-26T03:49:48;-0.20;99.90
19966;DHT22;10144;50.874;4.762;2023-02-26T03:52:14;-0.30;99.90
19966;DHT22;10144;50.874;4.762;2023-02-26T03:54:44;-0.30;99.90
19966;DHT22;10144;50.874;4.762;2023-02-26T03:57:11;-0.30;99.90
19966;DHT22;10144;50.874;4.762;2023-02-26T03:59:36;-0.30;99.90
19966;DHT22;10144;50.874;4.762;2023-02-26T04:02:19;-0.20;99.90
19966;DHT22;10144;50.874;4.762;2023-02-26T04:04:55;-0.20;99.90
19966;DHT22;10144;50.874;4.762;2023-02-26T04:07:22;-0.30;99.90
19966;DHT22;10144;50.874;4.762;2023-02-26T04:09:52;-0.40;99.90
19966;DHT22;10144;50.874;4.762;2023-02-26T04:12:25;-0.40;99.90
19966;DHT22;10144;50.874;4.762;2023-02-26T04:14:51;-0.40;99.90
19966;DHT22;10144;50.874;4.762;2023-02-26T04:17:20;-0.40;99.90
19966;DHT22;10144;50.874;4.762;2023-02-26T04:19:53;-0.40;99.90
19966;DHT22;10144;50.874;4.762;2023-02-26T04:22:19;-0.40;99.90
19966;DHT22;10144;50.874;4.762;2023-02-26T04:24:46;-0.30;99.90
19966;DHT22;10144;50.874;4.762;2023-02-26T04:27:15;-0.30;99.90
19966;DHT22;10144;50.874;4.762;2023-02-26T04:29:40;-0.30;99.90
19966;DHT22;10144;50.874;4.762;2023-02-26T04:32:09;-0.40;99.90
19966;DHT22;10144;50.874;4.762;2023-02-26T04:34:35;-0.40;99.90
19966;DHT22;10144;50.874;4.762;2023-02-26T04:37:01;-0.50;99.90
19966;DHT22;10144;50.874;4.762;2023-02-26T04:39:27;-0.60;99.90
19966;DHT22;10144;50.874;4.762;2023-02-26T04:41:55;-0.40;99.90
19966;DHT22;10144;50.874;4.762;2023-02-26T04:44:20;-0.50;99.90
19966;DHT22;10144;50.874;4.762;2023-02-26T04:46:48;-0.50;99.90
19966;DHT22;10144;50.874;4.762;2023-02-26T04:49:14;-0.50;99.90
19966;DHT22;10144;50.874;4.762;2023-02-26T04:51:43;-0.60;99.90
19966;DHT22;10144;50.874;4.762;2023-02-26T04:54:09;-0.60;99.90
19966;DHT22;10144;50.874;4.762;2023-02-26T04:56:34;-0.60;99.90
19966;DHT22;10144;50.874;4.762;2023-02-26T04:59:00;-0.70;99.90
19966;DHT22;10144;50.874;4.762;2023-02-26T05:01:26;-0.70;99.90
19966;DHT22;10144;50.874;4.762;2023-02-26T05:03:52;-0.70;99.90
19966;DHT22;10144;50.874;4.762;2023-02-26T05:06:18;-0.70;99.90
19966;DHT22;10144;50.874;4.762;2023-02-26T05:08:44;-0.70;99.90
19966;DHT22;10144;50.874;4.762;2023-02-26T05:11:11;-0.70;99.90
19966;DHT22;10144;50.874;4.762;2023-02-26T05:13:37;-0.70;99.90
19966;DHT22;10144;50.874;4.762;2023-02-26T05:16:04;-0.60;99.90
19966;DHT22;10144;50.874;4.762;2023-02-26T05:18:30;-0.70;99.90
19966;DHT22;10144;50.874;4.762;2023-02-26T05:20:57;-0.60;99.90
19966;DHT22;10144;50.874;4.762;2023-02-26T05:23:23;-0.70;99.90
19966;DHT22;10144;50.874;4.762;2023-02-26T05:25:49;-0.60;99.90
19966;DHT22;10144;50.874;4.762;2023-02-26T05:28:15;-0.70;99.90
19966;DHT22;10144;50.874;4.762;2023-02-26T05:30:41;-0.70;99.90
19966;DHT22;10144;50.874;4.762;2023-02-26T05:33:08;-0.70;99.90
19966;DHT22;10144;50.874;4.762;2023-02-26T05:35:36;-0.70;99.90
19966;DHT22;10144;50.874;4.762;2023-02-26T05:38:01;-0.60;99.90
19966;DHT22;10144;50.874;4.762;2023-02-26T05:40:27;-0.70;99.90
19966;DHT22;10144;50.874;4.762;2023-02-26T05:42:52;-0.70;99.90
19966;DHT22;10144;50.874;4.762;2023-02-26T05:45:19;-0.60;99.90
19966;DHT22;10144;50.874;4.762;2023-02-26T05:47:46;-0.60;99.90
19966;DHT22;10144;50.874;4.762;2023-02-26T05:50:13;-0.70;99.90
19966;DHT22;10144;50.874;4.762;2023-02-26T05:52:39;-0.70;99.90
19966;DHT22;10144;50.874;4.762;2023-02-26T05:55:05;-0.80;99.90
19966;DHT22;10144;50.874;4.762;2023-02-26T05:57:31;-0.90;99.90
19966;DHT22;10144;50.874;4.762;2023-02-26T05:59:57;-0.80;99.90
19966;DHT22;10144;50.874;4.762;2023-02-26T06:02:22;-0.90;99.90
19966;DHT22;10144;50.874;4.762;2023-02-26T06:04:48;-0.90;99.90
19966;DHT22;10144;50.874;4.762;2023-02-26T06:07:13;-0.90;99.90
19966;DHT22;10144;50.874;4.762;2023-02-26T06:09:40;-0.90;99.90
19966;DHT22;10144;50.874;4.762;2023-02-26T06:12:07;-0.90;99.90
19966;DHT22;10144;50.874;4.762;2023-02-26T06:14:33;-0.90;99.90
19966;DHT22;10144;50.874;4.762;2023-02-26T06:17:04;-0.90;99.90
19966;DHT22;10144;50.874;4.762;2023-02-26T06:19:31;-0.90;99.90
19966;DHT22;10144;50.874;4.762;2023-02-26T06:21:58;-0.80;99.90
19966;DHT22;10144;50.874;4.762;2023-02-26T06:24:23;-0.90;99.90
19966;DHT22;10144;50.874;4.762;2023-02-26T06:26:50;-0.90;99.90
19966;DHT22;10144;50.874;4.762;2023-02-26T06:29:17;-0.90;99.90
19966;DHT22;10144;50.874;4.762;2023-02-26T06:31:46;-0.90;99.90
19966;DHT22;10144;50.874;4.762;2023-02-26T06:34:16;-0.90;99.90
19966;DHT22;10144;50.874;4.762;2023-02-26T06:36:42;-0.80;99.90
19966;DHT22;10144;50.874;4.762;2023-02-26T06:39:10;-0.80;99.90
19966;DHT22;10144;50.874;4.762;2023-02-26T06:41:40;-0.80;99.90
19966;DHT22;10144;50.874;4.762;2023-02-26T06:44:06;-0.90;99.90
19966;DHT22;10144;50.874;4.762;2023-02-26T06:46:31;-0.80;99.90
19966;DHT22;10144;50.874;4.762;2023-02-26T06:49:04;-0.60;99.90
19966;DHT22;10144;50.874;4.762;2023-02-26T06:51:31;-0.30;99.90
19966;DHT22;10144;50.874;4.762;2023-02-26T06:53:56;0.20;99.90
19966;DHT22;10144;50.874;4.762;2023-02-26T06:56:23;0.80;99.90
19966;DHT22;10144;50.874;4.762;2023-02-26T06:58:50;1.60;99.90
19966;DHT22;10144;50.874;4.762;2023-02-26T07:01:16;2.30;99.90
19966;DHT22;10144;50.874;4.762;2023-02-26T07:03:42;3.00;99.90
19966;DHT22;10144;50.874;4.762;2023-02-26T07:06:09;3.50;99.90
19966;DHT22;10144;50.874;4.762;2023-02-26T07:08:36;4.10;99.90
19966;DHT22;10144;50.874;4.762;2023-02-26T07:11:01;4.80;99.90
19966;DHT22;10144;50.874;4.762;2023-02-26T07:13:27;5.40;99.90
19966;DHT22;10144;50.874;4.762;2023-02-26T07:15:52;5.80;99.90
19966;DHT22;10144;50.874;4.762;2023-02-26T07:18:18;6.20;99.90
19966;DHT22;10144;50.874;4.762;2023-02-26T07:20:48;6.50;99.90
19966;DHT22;10144;50.874;4.762;2023-02-26T07:23:14;7.30;99.90
19966;DHT22;10144;50.874;4.762;2023-02-26T07:25:42;8.20;99.90
19966;DHT22;10144;50.874;4.762;2023-02-26T07:28:07;8.80;99.90
19966;DHT22;10144;50.874;4.762;2023-02-26T07:30:34;8.60;99.90
19966;DHT22;10144;50.874;4.762;2023-02-26T07:32:59;9.10;99.90
19966;DHT22;10144;50.874;4.762;2023-02-26T07:35:27;10.20;99.90
19966;DHT22;10144;50.874;4.762;2023-02-26T07:37:53;10.80;99.90
19966;DHT22;10144;50.874;4.762;2023-02-26T07:40:18;10.50;99.90
19966;DHT22;10144;50.874;4.762;2023-02-26T07:42:44;10.80;99.90
19966;DHT22;10144;50.874;4.762;2023-02-26T07:45:11;11.30;99.90
19966;DHT22;10144;50.874;4.762;2023-02-26T07:47:50;11.90;99.90
19966;DHT22;10144;50.874;4.762;2023-02-26T07:50:20;12.30;99.90
19966;DHT22;10144;50.874;4.762;2023-02-26T07:52:50;13.10;99.90
19966;DHT22;10144;50.874;4.762;2023-02-26T07:55:19;13.70;99.60
19966;DHT22;10144;50.874;4.762;2023-02-26T07:57:47;13.30;99.90
19966;DHT22;10144;50.874;4.762;2023-02-26T08:00:17;12.40;99.30
19966;DHT22;10144;50.874;4.762;2023-02-26T08:02:46;12.80;99.60
19966;DHT22;10144;50.874;4.762;2023-02-26T08:05:12;13.00;98.80
19966;DHT22;10144;50.874;4.762;2023-02-26T08:07:41;12.80;98.60
19966;DHT22;10144;50.874;4.762;2023-02-26T08:10:08;13.10;97.80
19966;DHT22;10144;50.874;4.762;2023-02-26T08:12:40;12.50;97.60
19966;DHT22;10144;50.874;4.762;2023-02-26T08:15:09;12.20;98.40
19966;DHT22;10144;50.874;4.762;2023-02-26T08:17:37;12.00;99.50
19966;DHT22;10144;50.874;4.762;2023-02-26T08:20:07;12.10;99.80
19966;DHT22;10144;50.874;4.762;2023-02-26T08:22:34;11.60;99.40
19966;DHT22;10144;50.874;4.762;2023-02-26T08:25:04;11.80;99.10
19966;DHT22;10144;50.874;4.762;2023-02-26T08:27:32;11.50;99.90
19966;DHT22;10144;50.874;4.762;2023-02-26T08:30:02;11.40;99.90
19966;DHT22;10144;50.874;4.762;2023-02-26T08:32:29;11.60;99.40
19966;DHT22;10144;50.874;4.762;2023-02-26T08:34:54;11.30;99.90
19966;DHT22;10144;50.874;4.762;2023-02-26T08:37:20;12.20;99.70
19966;DHT22;10144;50.874;4.762;2023-02-26T08:39:48;11.80;98.50
19966;DHT22;10144;50.874;4.762;2023-02-26T08:42:14;12.00;99.90
19966;DHT22;10144;50.874;4.762;2023-02-26T08:44:42;12.80;98.80
19966;DHT22;10144;50.874;4.762;2023-02-26T08:47:07;14.40;96.70
19966;DHT22;10144;50.874;4.762;2023-02-26T08:49:33;14.30;93.40
19966;DHT22;10144;50.874;4.762;2023-02-26T08:52:00;13.90;93.40
19966;DHT22;10144;50.874;4.762;2023-02-26T08:54:25;13.90;94.10
19966;DHT22;10144;50.874;4.762;2023-02-26T08:56:51;14.10;94.60
19966;DHT22;10144;50.874;4.762;2023-02-26T08:59:18;15.10;92.00
19966;DHT22;10144;50.874;4.762;2023-02-26T09:01:43;14.50;91.10
19966;DHT22;10144;50.874;4.762;2023-02-26T09:04:09;15.30;91.50
19966;DHT22;10144;50.874;4.762;2023-02-26T09:06:35;17.40;87.60
19966;DHT22;10144;50.874;4.762;2023-02-26T09:09:01;17.40;82.30
19966;DHT22;10144;50.874;4.762;2023-02-26T09:11:26;15.90;81.20
19966;DHT22;10144;50.874;4.762;2023-02-26T09:13:55;14.60;84.40
19966;DHT22;10144;50.874;4.762;2023-02-26T09:16:20;12.30;91.10
19966;DHT22;10144;50.874;4.762;2023-02-26T09:18:46;12.40;92.10
19966;DHT22;10144;50.874;4.762;2023-02-26T09:21:12;13.70;91.70
19966;DHT22;10144;50.874;4.762;2023-02-26T09:23:37;13.60;90.80
19966;DHT22;10144;50.874;4.762;2023-02-26T09:26:03;12.90;91.00
19966;DHT22;10144;50.874;4.762;2023-02-26T09:28:29;11.50;94.60
19966;DHT22;10144;50.874;4.762;2023-02-26T09:30:55;11.20;97.00
19966;DHT22;10144;50.874;4.762;2023-02-26T09:33:21;11.10;97.40
19966;DHT22;10144;50.874;4.762;2023-02-26T09:35:48;11.80;94.00
19966;DHT22;10144;50.874;4.762;2023-02-26T09:41:32;12.00;94.50
19966;DHT22;10144;50.874;4.762;2023-02-26T09:44:22;11.20;94.00
19966;DHT22;10144;50.874;4.762;2023-02-26T09:49:44;9.10;99.90
19966;DHT22;10144;50.874;4.762;2023-02-26T09:52:23;9.90;99.90
19966;DHT22;10144;50.874;4.762;2023-02-26T09:54:55;10.80;99.90
19966;DHT22;10144;50.874;4.762;2023-02-26T09:57:32;11.20;97.00
19966;DHT22;10144;50.874;4.762;2023-02-26T09:59:59;10.90;95.30
19966;DHT22;10144;50.874;4.762;2023-02-26T10:02:36;10.90;94.30
19966;DHT22;10144;50.874;4.762;2023-02-26T10:05:17;10.10;95.90
19966;DHT22;10144;50.874;4.762;2023-02-26T10:08:01;10.30;96.20
19966;DHT22;10144;50.874;4.762;2023-02-26T10:10:54;8.70;99.90
19966;DHT22;10144;50.874;4.762;2023-02-26T10:13:44;9.10;99.90
19966;DHT22;10144;50.874;4.762;2023-02-26T10:16:26;9.80;98.80
19966;DHT22;10144;50.874;4.762;2023-02-26T10:18:55;10.70;97.70
19966;DHT22;10144;50.874;4.762;2023-02-26T10:21:31;9.90;95.10
19966;DHT22;10144;50.874;4.762;2023-02-26T10:24:03;9.90;97.20
19966;DHT22;10144;50.874;4.762;2023-02-26T10:26:44;10.20;93.20
19966;DHT22;10144;50.874;4.762;2023-02-26T10:29:26;9.50;95.20
19966;DHT22;10144;50.874;4.762;2023-02-26T10:35:02;5.80;99.90
19966;DHT22;10144;50.874;4.762;2023-02-26T10:37:46;5.90;99.90
19966;DHT22;10144;50.874;4.762;2023-02-26T10:40:57;6.10;99.90
19966;DHT22;10144;50.874;4.762;2023-02-26T10:43:39;6.60;99.90
19966;DHT22;10144;50.874;4.762;2023-02-26T10:51:11;5.80;99.90
19966;DHT22;10144;50.874;4.762;2023-02-26T10:53:37;4.90;99.90
19966;DHT22;10144;50.874;4.762;2023-02-26T10:58:47;5.20;99.90
19966;DHT22;10144;50.874;4.762;2023-02-26T11:01:16;6.00;99.90
19966;DHT22;10144;50.874;4.762;2023-02-26T11:03:45;6.10;99.90
19966;DHT22;10144;50.874;4.762;2023-02-26T11:06:32;6.10;99.90
19966;DHT22;10144;50.874;4.762;2023-02-26T11:09:00;6.30;99.90
19966;DHT22;10144;50.874;4.762;2023-02-26T11:11:42;6.90;99.90
19966;DHT22;10144;50.874;4.762;2023-02-26T11:14:10;6.90;99.90
19966;DHT22;10144;50.874;4.762;2023-02-26T11:16:44;7.10;99.90
19966;DHT22;10144;50.874;4.762;2023-02-26T11:19:12;7.00;99.90
19966;DHT22;10144;50.874;4.762;2023-02-26T11:21:40;6.80;99.90
19966;DHT22;10144;50.874;4.762;2023-02-26T11:24:10;6.60;99.90
19966;DHT22;10144;50.874;4.762;2023-02-26T11:26:38;7.60;99.90
19966;DHT22;10144;50.874;4.762;2023-02-26T11:29:17;8.50;99.90
19966;DHT22;10144;50.874;4.762;2023-02-26T11:31:50;7.70;99.90
19966;DHT22;10144;50.874;4.762;2023-02-26T11:34:21;8.20;99.90
19966;DHT22;10144;50.874;4.762;2023-02-26T11:36:47;6.90;99.90
19966;DHT22;10144;50.874;4.762;2023-02-26T11:39:19;5.70;99.90
19966;DHT22;10144;50.874;4.762;2023-02-26T11:41:47;5.90;99.90
19966;DHT22;10144;50.874;4.762;2023-02-26T11:44:15;5.70;99.90
19966;DHT22;10144;50.874;4.762;2023-02-26T11:46:51;6.00;99.90
19966;DHT22;10144;50.874;4.762;2023-02-26T11:49:21;5.90;99.90
19966;DHT22;10144;50.874;4.762;2023-02-26T11:51:48;5.60;99.90
19966;DHT22;10144;50.874;4.762;2023-02-26T11:54:27;5.40;99.90
19966;DHT22;10144;50.874;4.762;2023-02-26T11:57:46;6.60;99.90
19966;DHT22;10144;50.874;4.762;2023-02-26T11:59:51;8.30;99.90
19966;DHT22;10144;50.874;4.762;2023-02-26T12:02:19;8.80;99.90
19966;DHT22;10144;50.874;4.762;2023-02-26T12:04:49;8.20;99.90
19966;DHT22;10144;50.874;4.762;2023-02-26T12:07:19;8.40;99.90
19966;DHT22;10144;50.874;4.762;2023-02-26T12:09:45;8.70;98.40
19966;DHT22;10144;50.874;4.762;2023-02-26T12:20:36;8.60;97.50
19966;DHT22;10144;50.874;4.762;2023-02-26T12:33:41;7.70;98.70
19966;DHT22;10144;50.874;4.762;2023-02-26T12:41:47;8.20;98.50
19966;DHT22;10144;50.874;4.762;2023-02-26T12:44:49;7.80;99.90
19966;DHT22;10144;50.874;4.762;2023-02-26T12:53:28;9.70;95.90
19966;DHT22;10144;50.874;4.762;2023-02-26T13:21:48;8.40;93.10
19966;DHT22;10144;50.874;4.762;2023-02-26T13:24:23;8.10;93.90
19966;DHT22;10144;50.874;4.762;2023-02-26T13:26:52;7.60;95.80
19966;DHT22;10144;50.874;4.762;2023-02-26T13:32:18;7.60;97.20
19966;DHT22;10144;50.874;4.762;2023-02-26T13:34:52;7.30;96.10
19966;DHT22;10144;50.874;4.762;2023-02-26T13:37:30;7.60;96.20
19966;DHT22;10144;50.874;4.762;2023-02-26T13:45:42;7.20;95.30
19966;DHT22;10144;50.874;4.762;2023-02-26T13:51:08;5.60;99.90
19966;DHT22;10144;50.874;4.762;2023-02-26T13:53:47;5.50;99.90
19966;DHT22;10144;50.874;4.762;2023-02-26T13:56:16;5.10;99.90
19966;DHT22;10144;50.874;4.762;2023-02-26T13:58:52;4.70;99.90
19966;DHT22;10144;50.874;4.762;2023-02-26T14:01:26;4.70;99.90
19966;DHT22;10144;50.874;4.762;2023-02-26T14:06:52;4.40;99.90
19966;DHT22;10144;50.874;4.762;2023-02-26T14:15:16;5.10;99.90
19966;DHT22;10144;50.874;4.762;2023-02-26T14:22:45;4.80;99.90
19966;DHT22;10144;50.874;4.762;2023-02-26T14:25:33;4.80;99.90
19966;DHT22;10144;50.874;4.762;2023-02-26T14:28:44;4.60;99.90
19966;DHT22;10144;50.874;4.762;2023-02-26T14:33:59;4.80;99.90
19966;DHT22;10144;50.874;4.762;2023-02-26T14:36:50;4.80;99.90
19966;DHT22;10144;50.874;4.762;2023-02-26T14:42:01;4.80;99.90
19966;DHT22;10144;50.874;4.762;2023-02-26T14:44:35;4.80;99.90
19966;DHT22;10144;50.874;4.762;2023-02-26T14:47:01;4.80;99.90
19966;DHT22;10144;50.874;4.762;2023-02-26T14:49:34;4.70;99.90
19966;DHT22;10144;50.874;4.762;2023-02-26T15:00:48;4.50;99.90
19966;DHT22;10144;50.874;4.762;2023-02-26T15:17:34;4.30;99.90
19966;DHT22;10144;50.874;4.762;2023-02-26T15:20:04;4.40;99.90
19966;DHT22;10144;50.874;4.762;2023-02-26T15:25:27;4.60;99.90
19966;DHT22;10144;50.874;4.762;2023-02-26T15:27:54;4.60;99.90
19966;DHT22;10144;50.874;4.762;2023-02-26T15:30:22;4.40;99.90
19966;DHT22;10144;50.874;4.762;2023-02-26T15:32:47;4.30;99.90
19966;DHT22;10144;50.874;4.762;2023-02-26T15:35:18;4.20;99.90
19966;DHT22;10144;50.874;4.762;2023-02-26T15:37:49;4.30;99.90
19966;DHT22;10144;50.874;4.762;2023-02-26T15:40:17;4.30;99.90
19966;DHT22;10144;50.874;4.762;2023-02-26T15:42:44;4.40;99.90
19966;DHT22;10144;50.874;4.762;2023-02-26T15:45:32;4.40;99.90
19966;DHT22;10144;50.874;4.762;2023-02-26T15:48:03;4.40;99.90
19966;DHT22;10144;50.874;4.762;2023-02-26T15:50:34;4.20;99.90
19966;DHT22;10144;50.874;4.762;2023-02-26T15:53:02;4.10;99.90
19966;DHT22;10144;50.874;4.762;2023-02-26T15:55:33;4.00;99.90
19966;DHT22;10144;50.874;4.762;2023-02-26T15:58:00;4.00;99.90
19966;DHT22;10144;50.874;4.762;2023-02-26T16:00:31;4.00;99.90
19966;DHT22;10144;50.874;4.762;2023-02-26T16:02:57;4.00;99.90
19966;DHT22;10144;50.874;4.762;2023-02-26T16:05:25;3.90;99.90
19966;DHT22;10144;50.874;4.762;2023-02-26T16:07:50;3.90;99.90
19966;DHT22;10144;50.874;4.762;2023-02-26T16:10:27;4.00;99.90
19966;DHT22;10144;50.874;4.762;2023-02-26T16:12:53;3.90;99.90
19966;DHT22;10144;50.874;4.762;2023-02-26T16:15:31;3.90;99.90
19966;DHT22;10144;50.874;4.762;2023-02-26T16:18:00;3.90;99.90
19966;DHT22;10144;50.874;4.762;2023-02-26T16:20:28;3.90;99.90
19966;DHT22;10144;50.874;4.762;2023-02-26T16:23:04;3.80;99.90
19966;DHT22;10144;50.874;4.762;2023-02-26T16:25:35;3.80;99.90
19966;DHT22;10144;50.874;4.762;2023-02-26T16:28:06;3.80;99.90
19966;DHT22;10144;50.874;4.762;2023-02-26T16:30:38;3.80;99.90
19966;DHT22;10144;50.874;4.762;2023-02-26T16:33:10;3.80;99.90
19966;DHT22;10144;50.874;4.762;2023-02-26T16:35:41;3.70;99.90
19966;DHT22;10144;50.874;4.762;2023-02-26T16:38:30;3.70;99.90
19966;DHT22;10144;50.874;4.762;2023-02-26T16:41:08;3.70;99.90
19966;DHT22;10144;50.874;4.762;2023-02-26T16:51:21;3.50;99.90
19966;DHT22;10144;50.874;4.762;2023-02-26T16:54:01;3.50;99.90
19966;DHT22;10144;50.874;4.762;2023-02-26T16:56:32;3.40;99.90
19966;DHT22;10144;50.874;4.762;2023-02-26T17:01:35;3.50;99.90
19966;DHT22;10144;50.874;4.762;2023-02-26T17:04:02;3.40;99.90
19966;DHT22;10144;50.874;4.762;2023-02-26T17:06:29;3.30;99.90
19966;DHT22;10144;50.874;4.762;2023-02-26T17:09:00;3.20;99.90
19966;DHT22;10144;50.874;4.762;2023-02-26T17:11:37;3.10;99.90
19966;DHT22;10144;50.874;4.762;2023-02-26T17:14:16;3.10;99.90
19966;DHT22;10144;50.874;4.762;2023-02-26T17:16:50;3.00;99.90
19966;DHT22;10144;50.874;4.762;2023-02-26T17:19:16;3.00;99.90
19966;DHT22;10144;50.874;4.762;2023-02-26T17:21:48;2.90;99.90
19966;DHT22;10144;50.874;4.762;2023-02-26T17:24:20;2.90;99.90
19966;DHT22;10144;50.874;4.762;2023-02-26T17:26:47;2.90;99.90
19966;DHT22;10144;50.874;4.762;2023-02-26T17:29:23;2.80;99.90
19966;DHT22;10144;50.874;4.762;2023-02-26T17:31:50;2.80;99.90
19966;DHT22;10144;50.874;4.762;2023-02-26T17:34:19;2.80;99.90
19966;DHT22;10144;50.874;4.762;2023-02-26T17:36:45;2.70;99.90
19966;DHT22;10144;50.874;4.762;2023-02-26T17:39:12;2.60;99.90
19966;DHT22;10144;50.874;4.762;2023-02-26T17:41:38;2.60;99.90
19966;DHT22;10144;50.874;4.762;2023-02-26T17:44:03;2.60;99.90
19966;DHT22;10144;50.874;4.762;2023-02-26T17:46:29;2.60;99.90
19966;DHT22;10144;50.874;4.762;2023-02-26T17:48:54;2.50;99.90
19966;DHT22;10144;50.874;4.762;2023-02-26T17:51:20;2.40;99.90
19966;DHT22;10144;50.874;4.762;2023-02-26T17:53:46;2.50;99.90
19966;DHT22;10144;50.874;4.762;2023-02-26T17:56:20;2.40;99.90
19966;DHT22;10144;50.874;4.762;2023-02-26T17:58:48;2.30;99.90
19966;DHT22;10144;50.874;4.762;2023-02-26T18:01:14;2.20;99.90
19966;DHT22;10144;50.874;4.762;2023-02-26T18:03:40;2.20;99.90
19966;DHT22;10144;50.874;4.762;2023-02-26T18:06:09;2.10;99.90
19966;DHT22;10144;50.874;4.762;2023-02-26T18:08:37;2.00;99.90
19966;DHT22;10144;50.874;4.762;2023-02-26T18:11:05;2.00;99.90
19966;DHT22;10144;50.874;4.762;2023-02-26T18:13:32;2.10;99.90
19966;DHT22;10144;50.874;4.762;2023-02-26T18:15:58;2.10;99.90
19966;DHT22;10144;50.874;4.762;2023-02-26T18:18:26;2.20;99.90
19966;DHT22;10144;50.874;4.762;2023-02-26T18:20:52;2.20;99.90
19966;DHT22;10144;50.874;4.762;2023-02-26T18:23:18;2.20;99.90
19966;DHT22;10144;50.874;4.762;2023-02-26T18:25:47;2.20;99.90
19966;DHT22;10144;50.874;4.762;2023-02-26T18:28:22;2.00;99.90
19966;DHT22;10144;50.874;4.762;2023-02-26T18:30:48;1.90;99.90
19966;DHT22;10144;50.874;4.762;2023-02-26T18:33:14;1.90;99.90
19966;DHT22;10144;50.874;4.762;2023-02-26T18:35:44;1.90;99.90
19966;DHT22;10144;50.874;4.762;2023-02-26T18:38:16;1.90;99.90
19966;DHT22;10144;50.874;4.762;2023-02-26T18:40:42;1.90;99.90
19966;DHT22;10144;50.874;4.762;2023-02-26T18:43:09;1.90;99.90
19966;DHT22;10144;50.874;4.762;2023-02-26T18:45:44;1.80;99.90
19966;DHT22;10144;50.874;4.762;2023-02-26T18:48:12;1.90;99.90
19966;DHT22;10144;50.874;4.762;2023-02-26T18:50:40;2.00;99.90
19966;DHT22;10144;50.874;4.762;2023-02-26T18:53:07;1.90;99.90
19966;DHT22;10144;50.874;4.762;2023-02-26T18:55:33;2.00;99.90
19966;DHT22;10144;50.874;4.762;2023-02-26T18:57:58;2.00;99.90
19966;DHT22;10144;50.874;4.762;2023-02-26T19:00:24;2.10;99.90
19966;DHT22;10144;50.874;4.762;2023-02-26T19:02:52;2.10;99.90
19966;DHT22;10144;50.874;4.762;2023-02-26T19:05:18;2.10;99.90
19966;DHT22;10144;50.874;4.762;2023-02-26T19:07:48;2.10;99.90
19966;DHT22;10144;50.874;4.762;2023-02-26T19:10:15;1.90;99.90
19966;DHT22;10144;50.874;4.762;2023-02-26T19:12:41;1.90;99.90
19966;DHT22;10144;50.874;4.762;2023-02-26T19:15:08;1.70;99.90
19966;DHT22;10144;50.874;4.762;2023-02-26T19:17:34;1.60;99.90
19966;DHT22;10144;50.874;4.762;2023-02-26T19:20:00;1.50;99.90
19966;DHT22;10144;50.874;4.762;2023-02-26T19:22:25;1.50;99.90
19966;DHT22;10144;50.874;4.762;2023-02-26T19:24:51;1.60;99.90
19966;DHT22;10144;50.874;4.762;2023-02-26T19:27:19;1.50;99.90
19966;DHT22;10144;50.874;4.762;2023-02-26T19:29:45;1.60;99.90
19966;DHT22;10144;50.874;4.762;2023-02-26T19:32:11;1.60;99.90